sensor_id;sensor_type;location;lat;lon;timestamp;temperature;humidity
54429;DHT22;40337;52.978;6.310;2023-05-10T00:00:12;12.90;99.90
54429;DHT22;40337;52.978;6.310;2023-05-10T00:02:38;12.90;99.90
54429;DHT22;40337;52.978;6.310;2023-05-10T00:05:04;12.90;99.90
54429;DHT22;40337;52.978;6.310;2023-05-10T00:07:30;12.90;99.90
54429;DHT22;40337;52.978;6.310;2023-05-10T00:09:56;12.90;99.90
54429;DHT22;40337;52.978;6.310;2023-05-10T00:12:21;12.90;99.90
54429;DHT22;40337;52.978;6.310;2023-05-10T00:14:47;12.90;99.90
54429;DHT22;40337;52.978;6.310;2023-05-10T00:17:12;12.90;99.90
54429;DHT22;40337;52.978;6.310;2023-05-10T00:19:38;12.90;99.90
54429;DHT22;40337;52.978;6.310;2023-05-10T00:22:03;12.90;99.90
54429;DHT22;40337;52.978;6.310;2023-05-10T00:24:29;12.90;99.90
54429;DHT22;40337;52.978;6.310;2023-05-10T00:26:54;12.90;99.90
54429;DHT22;40337;52.978;6.310;2023-05-10T00:29:20;12.90;99.90
54429;DHT22;40337;52.978;6.310;2023-05-10T00:31:46;12.90;99.90
54429;DHT22;40337;52.978;6.310;2023-05-10T00:34:11;12.90;99.90
54429;DHT22;40337;52.978;6.310;2023-05-10T00:36:37;12.90;99.90
54429;DHT22;40337;52.978;6.310;2023-05-10T00:39:02;12.90;99.90
54429;DHT22;40337;52.978;6.310;2023-05-10T00:41:29;12.80;99.90
54429;DHT22;40337;52.978;6.310;2023-05-10T00:43:57;12.80;99.90
54429;DHT22;40337;52.978;6.310;2023-05-10T00:46:22;12.80;99.90
54429;DHT22;40337;52.978;6.310;2023-05-10T00:48:48;12.80;99.90
54429;DHT22;40337;52.978;6.310;2023-05-10T00:51:14;12.80;99.90
54429;DHT22;40337;52.978;6.310;2023-05-10T00:53:40;12.80;99.90
54429;DHT22;40337;52.978;6.310;2023-05-10T00:56:06;12.70;99.90
54429;DHT22;40337;52.978;6.310;2023-05-10T00:58:31;12.80;99.90
54429;DHT22;40337;52.978;6.310;2023-05-10T01:00:58;12.70;99.90
54429;DHT22;40337;52.978;6.310;2023-05-10T01:03:24;12.70;99.90
54429;DHT22;40337;52.978;6.310;2023-05-10T01:05:50;12.70;99.90
54429;DHT22;40337;52.978;6.310;2023-05-10T01:08:16;12.70;99.90
54429;DHT22;40337;52.978;6.310;2023-05-10T01:10:42;12.70;99.90
54429;DHT22;40337;52.978;6.310;2023-05-10T01:13:09;12.80;99.90
54429;DHT22;40337;52.978;6.310;2023-05-10T01:15:35;12.70;99.90
54429;DHT22;40337;52.978;6.310;2023-05-10T01:18:02;12.70;99.90
54429;DHT22;40337;52.978;6.310;2023-05-10T01:20:35;12.70;99.90
54429;DHT22;40337;52.978;6.310;2023-05-10T01:23:19;12.70;99.90
54429;DHT22;40337;52.978;6.310;2023-05-10T01:26:07;12.70;99.90
54429;DHT22;40337;52.978;6.310;2023-05-10T01:31:48;12.70;99.90
54429;DHT22;40337;52.978;6.310;2023-05-10T01:34:23;12.80;99.90
54429;DHT22;40337;52.978;6.310;2023-05-10T01:37:04;12.70;99.90
54429;DHT22;40337;52.978;6.310;2023-05-10T01:39:47;12.70;99.90
54429;DHT22;40337;52.978;6.310;2023-05-10T01:42:20;12.70;99.90
54429;DHT22;40337;52.978;6.310;2023-05-10T01:45:02;12.70;99.90
54429;DHT22;40337;52.978;6.310;2023-05-10T01:47:44;12.80;99.90
54429;DHT22;40337;52.978;6.310;2023-05-10T01:50:24;12.70;99.90
54429;DHT22;40337;52.978;6.310;2023-05-10T01:52:55;12.70;99.90
54429;DHT22;40337;52.978;6.310;2023-05-10T01:55:25;12.70;99.90
54429;DHT22;40337;52.978;6.310;2023-05-10T01:57:58;12.70;99.90
54429;DHT22;40337;52.978;6.310;2023-05-10T02:00:26;12.80;99.90
54429;DHT22;40337;52.978;6.310;2023-05-10T02:02:52;12.80;99.90
54429;DHT22;40337;52.978;6.310;2023-05-10T02:05:18;12.70;99.90
54429;DHT22;40337;52.978;6.310;2023-05-10T02:07:45;12.80;99.90
54429;DHT22;40337;52.978;6.310;2023-05-10T02:10:11;12.80;99.90
54429;DHT22;40337;52.978;6.310;2023-05-10T02:12:43;12.80;99.90
54429;DHT22;40337;52.978;6.310;2023-05-10T02:15:12;12.80;99.90
54429;DHT22;40337;52.978;6.310;2023-05-10T02:17:39;12.70;99.90
54429;DHT22;40337;52.978;6.310;2023-05-10T02:20:06;12.70;99.90
54429;DHT22;40337;52.978;6.310;2023-05-10T02:22:33;12.70;99.90
54429;DHT22;40337;52.978;6.310;2023-05-10T02:25:00;12.70;99.90
54429;DHT22;40337;52.978;6.310;2023-05-10T02:27:28;12.70;99.90
54429;DHT22;40337;52.978;6.310;2023-05-10T02:29:55;12.70;99.90
54429;DHT22;40337;52.978;6.310;2023-05-10T02:32:22;12.70;99.90
54429;DHT22;40337;52.978;6.310;2023-05-10T02:34:49;12.70;99.90
54429;DHT22;40337;52.978;6.310;2023-05-10T02:37:19;12.60;99.90
54429;DHT22;40337;52.978;6.310;2023-05-10T02:39:49;12.70;99.90
54429;DHT22;40337;52.978;6.310;2023-05-10T02:42:18;12.70;99.90
54429;DHT22;40337;52.978;6.310;2023-05-10T02:44:48;12.70;99.90
54429;DHT22;40337;52.978;6.310;2023-05-10T02:47:14;12.60;99.90
54429;DHT22;40337;52.978;6.310;2023-05-10T02:49:40;12.70;99.90
54429;DHT22;40337;52.978;6.310;2023-05-10T02:52:06;12.70;99.90
54429;DHT22;40337;52.978;6.310;2023-05-10T02:54:41;12.60;99.90
54429;DHT22;40337;52.978;6.310;2023-05-10T02:57:12;12.70;99.90
54429;DHT22;40337;52.978;6.310;2023-05-10T02:59:40;12.60;99.90
54429;DHT22;40337;52.978;6.310;2023-05-10T03:02:08;12.60;99.90
54429;DHT22;40337;52.978;6.310;2023-05-10T03:04:34;12.60;99.90
54429;DHT22;40337;52.978;6.310;2023-05-10T03:07:00;12.60;99.90
54429;DHT22;40337;52.978;6.310;2023-05-10T03:09:25;12.60;99.90
54429;DHT22;40337;52.978;6.310;2023-05-10T03:12:11;12.60;99.90
54429;DHT22;40337;52.978;6.310;2023-05-10T03:15:05;12.60;99.90
54429;DHT22;40337;52.978;6.310;2023-05-10T03:17:57;12.60;99.90
54429;DHT22;40337;52.978;6.310;2023-05-10T03:20:44;12.60;99.90
54429;DHT22;40337;52.978;6.310;2023-05-10T03:23:19;12.60;99.90
54429;DHT22;40337;52.978;6.310;2023-05-10T03:25:48;12.60;99.90
54429;DHT22;40337;52.978;6.310;2023-05-10T03:28:15;12.60;99.90
54429;DHT22;40337;52.978;6.310;2023-05-10T03:30:42;12.60;99.90
54429;DHT22;40337;52.978;6.310;2023-05-10T03:33:08;12.60;99.90
54429;DHT22;40337;52.978;6.310;2023-05-10T03:35:34;12.50;99.90
54429;DHT22;40337;52.978;6.310;2023-05-10T03:38:00;12.60;99.90
54429;DHT22;40337;52.978;6.310;2023-05-10T03:40:26;12.60;99.90
54429;DHT22;40337;52.978;6.310;2023-05-10T03:42:54;12.60;99.90
54429;DHT22;40337;52.978;6.310;2023-05-10T03:45:20;12.60;99.90
54429;DHT22;40337;52.978;6.310;2023-05-10T03:47:45;12.50;99.90
54429;DHT22;40337;52.978;6.310;2023-05-10T03:50:11;12.60;99.90
54429;DHT22;40337;52.978;6.310;2023-05-10T03:52:36;12.60;99.90
54429;DHT22;40337;52.978;6.310;2023-05-10T03:55:04;12.60;99.90
54429;DHT22;40337;52.978;6.310;2023-05-10T03:57:30;12.50;99.90
54429;DHT22;40337;52.978;6.310;2023-05-10T03:59:56;12.50;99.90
54429;DHT22;40337;52.978;6.310;2023-05-10T04:02:21;12.50;99.90
54429;DHT22;40337;52.978;6.310;2023-05-10T04:04:47;12.50;99.90
54429;DHT22;40337;52.978;6.310;2023-05-10T04:07:13;12.50;99.90
54429;DHT22;40337;52.978;6.310;2023-05-10T04:09:39;12.50;99.90
54429;DHT22;40337;52.978;6.310;2023-05-10T04:12:05;12.50;99.90
54429;DHT22;40337;52.978;6.310;2023-05-10T04:14:31;12.50;99.90
54429;DHT22;40337;52.978;6.310;2023-05-10T04:16:56;12.60;99.90
54429;DHT22;40337;52.978;6.310;2023-05-10T04:19:22;12.50;99.90
54429;DHT22;40337;52.978;6.310;2023-05-10T04:21:47;12.50;99.90
54429;DHT22;40337;52.978;6.310;2023-05-10T04:24:13;12.50;99.90
54429;DHT22;40337;52.978;6.310;2023-05-10T04:26:38;12.50;99.90
54429;DHT22;40337;52.978;6.310;2023-05-10T04:29:04;12.50;99.90
54429;DHT22;40337;52.978;6.310;2023-05-10T04:31:30;12.50;99.90
54429;DHT22;40337;52.978;6.310;2023-05-10T04:33:55;12.50;99.90
54429;DHT22;40337;52.978;6.310;2023-05-10T04:36:21;12.50;99.90
54429;DHT22;40337;52.978;6.310;2023-05-10T04:38:46;12.50;99.90
54429;DHT22;40337;52.978;6.310;2023-05-10T04:41:12;12.50;99.90
54429;DHT22;40337;52.978;6.310;2023-05-10T04:43:38;12.50;99.90
54429;DHT22;40337;52.978;6.310;2023-05-10T04:46:04;12.40;99.90
54429;DHT22;40337;52.978;6.310;2023-05-10T04:48:30;12.50;99.90
54429;DHT22;40337;52.978;6.310;2023-05-10T04:50:56;12.50;99.90
54429;DHT22;40337;52.978;6.310;2023-05-10T04:53:22;12.50;99.90
54429;DHT22;40337;52.978;6.310;2023-05-10T04:55:47;12.50;99.90
54429;DHT22;40337;52.978;6.310;2023-05-10T04:58:13;12.50;99.90
54429;DHT22;40337;52.978;6.310;2023-05-10T05:00:39;12.50;99.90
54429;DHT22;40337;52.978;6.310;2023-05-10T05:03:04;12.50;99.90
54429;DHT22;40337;52.978;6.310;2023-05-10T05:05:30;12.50;99.90
54429;DHT22;40337;52.978;6.310;2023-05-10T05:07:56;12.50;99.90
54429;DHT22;40337;52.978;6.310;2023-05-10T05:10:22;12.40;99.90
54429;DHT22;40337;52.978;6.310;2023-05-10T05:12:47;12.50;99.90
54429;DHT22;40337;52.978;6.310;2023-05-10T05:15:13;12.50;99.90
54429;DHT22;40337;52.978;6.310;2023-05-10T05:17:38;12.50;99.90
54429;DHT22;40337;52.978;6.310;2023-05-10T05:20:04;12.50;99.90
54429;DHT22;40337;52.978;6.310;2023-05-10T05:22:30;12.40;99.90
54429;DHT22;40337;52.978;6.310;2023-05-10T05:24:56;12.50;99.90
54429;DHT22;40337;52.978;6.310;2023-05-10T05:27:24;12.50;99.90
54429;DHT22;40337;52.978;6.310;2023-05-10T05:29:55;12.50;99.90
54429;DHT22;40337;52.978;6.310;2023-05-10T05:32:21;12.50;99.90
54429;DHT22;40337;52.978;6.310;2023-05-10T05:34:47;12.50;99.90
54429;DHT22;40337;52.978;6.310;2023-05-10T05:37:17;12.50;99.90
54429;DHT22;40337;52.978;6.310;2023-05-10T05:39:43;12.50;99.90
54429;DHT22;40337;52.978;6.310;2023-05-10T05:42:09;12.50;99.90
54429;DHT22;40337;52.978;6.310;2023-05-10T05:44:35;12.50;99.90
54429;DHT22;40337;52.978;6.310;2023-05-10T05:47:01;12.50;99.90
54429;DHT22;40337;52.978;6.310;2023-05-10T05:49:27;12.50;99.90
54429;DHT22;40337;52.978;6.310;2023-05-10T05:51:52;12.50;99.90
54429;DHT22;40337;52.978;6.310;2023-05-10T05:54:18;12.50;99.90
54429;DHT22;40337;52.978;6.310;2023-05-10T05:56:43;12.50;99.90
54429;DHT22;40337;52.978;6.310;2023-05-10T05:59:12;12.60;99.90
54429;DHT22;40337;52.978;6.310;2023-05-10T06:01:38;12.60;99.90
54429;DHT22;40337;52.978;6.310;2023-05-10T06:04:03;12.70;99.90
54429;DHT22;40337;52.978;6.310;2023-05-10T06:06:29;12.60;99.90
54429;DHT22;40337;52.978;6.310;2023-05-10T06:08:55;12.80;99.90
54429;DHT22;40337;52.978;6.310;2023-05-10T06:11:20;12.80;99.90
54429;DHT22;40337;52.978;6.310;2023-05-10T06:13:49;12.70;99.90
54429;DHT22;40337;52.978;6.310;2023-05-10T06:16:14;12.80;99.90
54429;DHT22;40337;52.978;6.310;2023-05-10T06:18:40;12.90;99.90
54429;DHT22;40337;52.978;6.310;2023-05-10T06:21:05;12.90;99.90
54429;DHT22;40337;52.978;6.310;2023-05-10T06:23:31;13.00;99.90
54429;DHT22;40337;52.978;6.310;2023-05-10T06:25:56;12.90;99.90
54429;DHT22;40337;52.978;6.310;2023-05-10T06:28:22;13.00;99.90
54429;DHT22;40337;52.978;6.310;2023-05-10T06:30:47;13.00;99.90
54429;DHT22;40337;52.978;6.310;2023-05-10T06:33:13;13.00;99.90
54429;DHT22;40337;52.978;6.310;2023-05-10T06:35:39;13.00;99.90
54429;DHT22;40337;52.978;6.310;2023-05-10T06:38:05;13.00;99.90
54429;DHT22;40337;52.978;6.310;2023-05-10T06:40:30;13.10;99.90
54429;DHT22;40337;52.978;6.310;2023-05-10T06:42:56;13.10;99.90
54429;DHT22;40337;52.978;6.310;2023-05-10T06:45:21;13.10;99.90
54429;DHT22;40337;52.978;6.310;2023-05-10T06:47:47;13.20;99.90
54429;DHT22;40337;52.978;6.310;2023-05-10T06:50:12;13.10;99.90
54429;DHT22;40337;52.978;6.310;2023-05-10T06:52:38;13.20;99.90
54429;DHT22;40337;52.978;6.310;2023-05-10T06:55:05;13.20;99.90
54429;DHT22;40337;52.978;6.310;2023-05-10T06:57:31;13.20;99.90
54429;DHT22;40337;52.978;6.310;2023-05-10T06:59:57;13.20;99.90
54429;DHT22;40337;52.978;6.310;2023-05-10T07:02:22;13.20;99.90
54429;DHT22;40337;52.978;6.310;2023-05-10T07:04:48;13.20;99.90
54429;DHT22;40337;52.978;6.310;2023-05-10T07:07:14;13.20;99.90
54429;DHT22;40337;52.978;6.310;2023-05-10T07:09:40;13.20;99.90
54429;DHT22;40337;52.978;6.310;2023-05-10T07:12:06;13.30;99.90
54429;DHT22;40337;52.978;6.310;2023-05-10T07:14:31;13.30;99.90
54429;DHT22;40337;52.978;6.310;2023-05-10T07:16:57;13.30;99.90
54429;DHT22;40337;52.978;6.310;2023-05-10T07:19:22;13.20;99.90
54429;DHT22;40337;52.978;6.310;2023-05-10T07:21:48;13.20;99.90
54429;DHT22;40337;52.978;6.310;2023-05-10T07:24:13;13.20;99.90
54429;DHT22;40337;52.978;6.310;2023-05-10T07:26:39;13.20;99.90
54429;DHT22;40337;52.978;6.310;2023-05-10T07:29:05;13.10;99.90
54429;DHT22;40337;52.978;6.310;2023-05-10T07:31:30;13.10;99.90
54429;DHT22;40337;52.978;6.310;2023-05-10T07:33:56;13.20;99.90
54429;DHT22;40337;52.978;6.310;2023-05-10T07:36:21;13.10;99.90
54429;DHT22;40337;52.978;6.310;2023-05-10T07:38:47;13.10;99.90
54429;DHT22;40337;52.978;6.310;2023-05-10T07:41:12;13.10;99.90
54429;DHT22;40337;52.978;6.310;2023-05-10T07:43:38;13.20;99.90
54429;DHT22;40337;52.978;6.310;2023-05-10T07:46:04;13.20;99.90
54429;DHT22;40337;52.978;6.310;2023-05-10T07:48:30;13.30;99.90
54429;DHT22;40337;52.978;6.310;2023-05-10T07:50:56;13.30;99.90
54429;DHT22;40337;52.978;6.310;2023-05-10T07:53:22;13.40;99.90
54429;DHT22;40337;52.978;6.310;2023-05-10T07:55:51;13.40;99.90
54429;DHT22;40337;52.978;6.310;2023-05-10T07:58:19;13.50;99.90
54429;DHT22;40337;52.978;6.310;2023-05-10T08:00:45;13.50;99.90
54429;DHT22;40337;52.978;6.310;2023-05-10T08:03:10;13.50;99.90
54429;DHT22;40337;52.978;6.310;2023-05-10T08:05:36;13.40;99.90
54429;DHT22;40337;52.978;6.310;2023-05-10T08:08:01;13.40;99.90
54429;DHT22;40337;52.978;6.310;2023-05-10T08:10:27;13.40;99.90
54429;DHT22;40337;52.978;6.310;2023-05-10T08:12:52;13.40;99.90
54429;DHT22;40337;52.978;6.310;2023-05-10T08:15:18;13.40;99.90
54429;DHT22;40337;52.978;6.310;2023-05-10T08:17:44;13.50;99.90
54429;DHT22;40337;52.978;6.310;2023-05-10T08:20:09;13.50;99.90
54429;DHT22;40337;52.978;6.310;2023-05-10T08:22:35;13.50;99.90
54429;DHT22;40337;52.978;6.310;2023-05-10T08:25:01;13.50;99.90
54429;DHT22;40337;52.978;6.310;2023-05-10T08:27:26;13.50;99.90
54429;DHT22;40337;52.978;6.310;2023-05-10T08:29:52;13.50;99.90
54429;DHT22;40337;52.978;6.310;2023-05-10T08:32:17;13.50;99.90
54429;DHT22;40337;52.978;6.310;2023-05-10T08:34:43;13.50;99.90
54429;DHT22;40337;52.978;6.310;2023-05-10T08:37:09;13.50;99.90
54429;DHT22;40337;52.978;6.310;2023-05-10T08:39:36;13.70;99.90
54429;DHT22;40337;52.978;6.310;2023-05-10T08:42:03;13.90;99.90
54429;DHT22;40337;52.978;6.310;2023-05-10T08:44:31;14.00;99.90
54429;DHT22;40337;52.978;6.310;2023-05-10T08:46:59;13.90;99.90
54429;DHT22;40337;52.978;6.310;2023-05-10T08:49:31;14.00;99.90
54429;DHT22;40337;52.978;6.310;2023-05-10T08:51:57;14.00;99.90
54429;DHT22;40337;52.978;6.310;2023-05-10T08:54:25;13.90;99.90
54429;DHT22;40337;52.978;6.310;2023-05-10T08:56:50;14.10;99.90
54429;DHT22;40337;52.978;6.310;2023-05-10T08:59:17;14.20;99.90
54429;DHT22;40337;52.978;6.310;2023-05-10T09:01:45;14.30;99.90
54429;DHT22;40337;52.978;6.310;2023-05-10T09:04:12;14.30;99.90
54429;DHT22;40337;52.978;6.310;2023-05-10T09:06:38;14.30;99.90
54429;DHT22;40337;52.978;6.310;2023-05-10T09:09:03;14.30;99.90
54429;DHT22;40337;52.978;6.310;2023-05-10T09:11:29;14.40;99.90
54429;DHT22;40337;52.978;6.310;2023-05-10T09:13:55;14.40;99.90
54429;DHT22;40337;52.978;6.310;2023-05-10T09:16:22;14.50;99.90
54429;DHT22;40337;52.978;6.310;2023-05-10T09:18:48;14.50;99.90
54429;DHT22;40337;52.978;6.310;2023-05-10T09:21:14;14.40;99.90
54429;DHT22;40337;52.978;6.310;2023-05-10T09:23:44;14.50;99.90
54429;DHT22;40337;52.978;6.310;2023-05-10T09:26:10;14.50;99.90
54429;DHT22;40337;52.978;6.310;2023-05-10T09:28:57;14.50;99.90
54429;DHT22;40337;52.978;6.310;2023-05-10T09:31:24;14.60;99.90
54429;DHT22;40337;52.978;6.310;2023-05-10T09:33:53;14.70;99.90
54429;DHT22;40337;52.978;6.310;2023-05-10T09:36:18;14.90;99.90
54429;DHT22;40337;52.978;6.310;2023-05-10T09:38:49;15.00;99.90
54429;DHT22;40337;52.978;6.310;2023-05-10T09:41:21;15.10;99.90
54429;DHT22;40337;52.978;6.310;2023-05-10T09:43:47;15.10;99.90
54429;DHT22;40337;52.978;6.310;2023-05-10T09:46:14;15.10;99.90
54429;DHT22;40337;52.978;6.310;2023-05-10T09:48:47;15.10;99.90
54429;DHT22;40337;52.978;6.310;2023-05-10T09:51:25;15.10;99.90
54429;DHT22;40337;52.978;6.310;2023-05-10T09:54:12;15.20;99.90
54429;DHT22;40337;52.978;6.310;2023-05-10T09:56:39;15.30;99.90
54429;DHT22;40337;52.978;6.310;2023-05-10T09:59:10;15.30;99.90
54429;DHT22;40337;52.978;6.310;2023-05-10T10:01:37;15.50;99.90
54429;DHT22;40337;52.978;6.310;2023-05-10T10:04:04;15.50;99.90
54429;DHT22;40337;52.978;6.310;2023-05-10T10:06:38;15.50;99.90
54429;DHT22;40337;52.978;6.310;2023-05-10T10:09:06;15.50;99.90
54429;DHT22;40337;52.978;6.310;2023-05-10T10:11:33;15.50;99.90
54429;DHT22;40337;52.978;6.310;2023-05-10T10:13:59;15.50;99.90
54429;DHT22;40337;52.978;6.310;2023-05-10T10:16:26;15.70;99.90
54429;DHT22;40337;52.978;6.310;2023-05-10T10:18:52;15.60;99.90
54429;DHT22;40337;52.978;6.310;2023-05-10T10:21:18;15.60;99.90
54429;DHT22;40337;52.978;6.310;2023-05-10T10:23:44;15.60;99.90
54429;DHT22;40337;52.978;6.310;2023-05-10T10:26:10;15.50;99.90
54429;DHT22;40337;52.978;6.310;2023-05-10T10:28:57;15.50;99.90
54429;DHT22;40337;52.978;6.310;2023-05-10T10:31:40;15.40;99.90
54429;DHT22;40337;52.978;6.310;2023-05-10T10:34:09;15.30;99.90
54429;DHT22;40337;52.978;6.310;2023-05-10T10:36:47;15.20;99.90
54429;DHT22;40337;52.978;6.310;2023-05-10T10:39:14;15.10;99.90
54429;DHT22;40337;52.978;6.310;2023-05-10T10:41:57;15.00;99.90
54429;DHT22;40337;52.978;6.310;2023-05-10T10:47:07;15.00;99.90
54429;DHT22;40337;52.978;6.310;2023-05-10T10:52:36;14.90;99.90
54429;DHT22;40337;52.978;6.310;2023-05-10T10:55:09;15.00;99.90
54429;DHT22;40337;52.978;6.310;2023-05-10T10:57:55;15.00;99.90
54429;DHT22;40337;52.978;6.310;2023-05-10T11:00:38;15.10;99.90
54429;DHT22;40337;52.978;6.310;2023-05-10T11:03:09;15.10;99.90
54429;DHT22;40337;52.978;6.310;2023-05-10T11:05:45;15.20;99.90
54429;DHT22;40337;52.978;6.310;2023-05-10T11:08:26;15.20;99.90
54429;DHT22;40337;52.978;6.310;2023-05-10T11:13:45;15.20;99.90
54429;DHT22;40337;52.978;6.310;2023-05-10T11:18:39;15.10;99.90
54429;DHT22;40337;52.978;6.310;2023-05-10T11:21:08;15.10;99.90
54429;DHT22;40337;52.978;6.310;2023-05-10T11:26:13;15.10;99.90
54429;DHT22;40337;52.978;6.310;2023-05-10T11:28:43;15.10;99.90
54429;DHT22;40337;52.978;6.310;2023-05-10T11:31:10;15.10;99.90
54429;DHT22;40337;52.978;6.310;2023-05-10T11:33:51;15.10;99.90
54429;DHT22;40337;52.978;6.310;2023-05-10T11:36:19;15.10;99.90
54429;DHT22;40337;52.978;6.310;2023-05-10T11:38:45;15.20;99.90
54429;DHT22;40337;52.978;6.310;2023-05-10T11:41:11;15.20;99.90
54429;DHT22;40337;52.978;6.310;2023-05-10T11:43:41;15.20;99.90
54429;DHT22;40337;52.978;6.310;2023-05-10T11:46:07;15.30;99.90
54429;DHT22;40337;52.978;6.310;2023-05-10T11:48:33;15.30;99.90
54429;DHT22;40337;52.978;6.310;2023-05-10T11:51:00;15.30;99.90
54429;DHT22;40337;52.978;6.310;2023-05-10T11:53:27;15.40;99.90
54429;DHT22;40337;52.978;6.310;2023-05-10T11:55:53;15.40;99.90
54429;DHT22;40337;52.978;6.310;2023-05-10T11:58:19;15.50;99.90
54429;DHT22;40337;52.978;6.310;2023-05-10T12:00:46;15.50;99.90
54429;DHT22;40337;52.978;6.310;2023-05-10T12:03:13;15.40;99.90
54429;DHT22;40337;52.978;6.310;2023-05-10T12:05:38;15.40;99.90
54429;DHT22;40337;52.978;6.310;2023-05-10T12:08:14;15.20;99.90
54429;DHT22;40337;52.978;6.310;2023-05-10T12:10:40;15.20;99.90
54429;DHT22;40337;52.978;6.310;2023-05-10T12:13:05;15.10;99.90
54429;DHT22;40337;52.978;6.310;2023-05-10T12:15:35;15.00;99.90
54429;DHT22;40337;52.978;6.310;2023-05-10T12:18:01;15.00;99.90
54429;DHT22;40337;52.978;6.310;2023-05-10T12:20:28;14.90;99.90
54429;DHT22;40337;52.978;6.310;2023-05-10T12:22:56;14.90;99.90
54429;DHT22;40337;52.978;6.310;2023-05-10T12:25:23;14.90;99.90
54429;DHT22;40337;52.978;6.310;2023-05-10T12:27:54;14.90;99.90
54429;DHT22;40337;52.978;6.310;2023-05-10T12:30:24;14.90;99.90
54429;DHT22;40337;52.978;6.310;2023-05-10T12:32:50;14.90;99.90
54429;DHT22;40337;52.978;6.310;2023-05-10T12:35:16;14.90;99.90
54429;DHT22;40337;52.978;6.310;2023-05-10T12:37:43;15.00;99.90
54429;DHT22;40337;52.978;6.310;2023-05-10T12:40:10;15.00;99.90
54429;DHT22;40337;52.978;6.310;2023-05-10T12:42:39;15.00;99.90
54429;DHT22;40337;52.978;6.310;2023-05-10T12:45:06;15.10;99.90
54429;DHT22;40337;52.978;6.310;2023-05-10T12:47:32;15.10;99.90
54429;DHT22;40337;52.978;6.310;2023-05-10T12:49:59;15.20;99.90
54429;DHT22;40337;52.978;6.310;2023-05-10T12:52:25;15.30;99.90
54429;DHT22;40337;52.978;6.310;2023-05-10T12:54:52;15.50;99.90
54429;DHT22;40337;52.978;6.310;2023-05-10T12:57:18;15.60;99.90
54429;DHT22;40337;52.978;6.310;2023-05-10T12:59:43;15.60;99.90
54429;DHT22;40337;52.978;6.310;2023-05-10T13:02:09;15.60;99.90
54429;DHT22;40337;52.978;6.310;2023-05-10T13:04:35;15.60;99.90
54429;DHT22;40337;52.978;6.310;2023-05-10T13:07:05;15.70;99.90
54429;DHT22;40337;52.978;6.310;2023-05-10T13:09:31;15.70;99.90
54429;DHT22;40337;52.978;6.310;2023-05-10T13:11:56;15.70;99.90
54429;DHT22;40337;52.978;6.310;2023-05-10T13:14:22;15.70;99.90
54429;DHT22;40337;52.978;6.310;2023-05-10T13:16:47;15.70;99.90
54429;DHT22;40337;52.978;6.310;2023-05-10T13:19:13;15.70;99.90
54429;DHT22;40337;52.978;6.310;2023-05-10T13:21:39;15.60;99.90
54429;DHT22;40337;52.978;6.310;2023-05-10T13:24:08;15.70;99.90
54429;DHT22;40337;52.978;6.310;2023-05-10T13:26:33;15.70;99.90
54429;DHT22;40337;52.978;6.310;2023-05-10T13:28:59;15.80;99.90
54429;DHT22;40337;52.978;6.310;2023-05-10T13:31:25;15.80;99.90
54429;DHT22;40337;52.978;6.310;2023-05-10T13:33:50;15.90;99.90
54429;DHT22;40337;52.978;6.310;2023-05-10T13:36:16;15.90;99.90
54429;DHT22;40337;52.978;6.310;2023-05-10T13:38:41;15.90;99.90
54429;DHT22;40337;52.978;6.310;2023-05-10T13:41:07;16.00;99.90
54429;DHT22;40337;52.978;6.310;2023-05-10T13:43:32;16.00;99.90
54429;DHT22;40337;52.978;6.310;2023-05-10T13:45:58;16.10;99.90
54429;DHT22;40337;52.978;6.310;2023-05-10T13:48:23;16.10;99.90
54429;DHT22;40337;52.978;6.310;2023-05-10T13:50:49;16.10;99.90
54429;DHT22;40337;52.978;6.310;2023-05-10T13:53:15;16.20;99.90
54429;DHT22;40337;52.978;6.310;2023-05-10T13:55:41;16.30;99.90
54429;DHT22;40337;52.978;6.310;2023-05-10T13:58:07;16.40;99.90
54429;DHT22;40337;52.978;6.310;2023-05-10T14:00:32;16.50;99.90
54429;DHT22;40337;52.978;6.310;2023-05-10T14:02:58;16.60;99.90
54429;DHT22;40337;52.978;6.310;2023-05-10T14:05:23;16.60;99.90
54429;DHT22;40337;52.978;6.310;2023-05-10T14:07:50;16.60;99.90
54429;DHT22;40337;52.978;6.310;2023-05-10T14:10:15;16.70;99.90
54429;DHT22;40337;52.978;6.310;2023-05-10T14:12:41;16.70;99.90
54429;DHT22;40337;52.978;6.310;2023-05-10T14:15:07;16.70;99.90
54429;DHT22;40337;52.978;6.310;2023-05-10T14:17:33;16.70;99.90
54429;DHT22;40337;52.978;6.310;2023-05-10T14:19:58;16.70;99.90
54429;DHT22;40337;52.978;6.310;2023-05-10T14:22:24;16.80;99.90
54429;DHT22;40337;52.978;6.310;2023-05-10T14:24:49;16.80;99.90
54429;DHT22;40337;52.978;6.310;2023-05-10T14:27:15;16.80;99.90
54429;DHT22;40337;52.978;6.310;2023-05-10T14:29:41;16.80;99.90
54429;DHT22;40337;52.978;6.310;2023-05-10T14:32:07;16.90;99.90
54429;DHT22;40337;52.978;6.310;2023-05-10T14:34:32;16.90;99.90
54429;DHT22;40337;52.978;6.310;2023-05-10T14:36:58;16.90;99.90
54429;DHT22;40337;52.978;6.310;2023-05-10T14:39:23;16.90;99.90
54429;DHT22;40337;52.978;6.310;2023-05-10T14:41:49;16.90;99.90
54429;DHT22;40337;52.978;6.310;2023-05-10T14:44:16;16.90;99.90
54429;DHT22;40337;52.978;6.310;2023-05-10T14:46:42;16.80;99.90
54429;DHT22;40337;52.978;6.310;2023-05-10T14:49:08;16.80;99.90
54429;DHT22;40337;52.978;6.310;2023-05-10T14:51:33;16.70;99.90
54429;DHT22;40337;52.978;6.310;2023-05-10T14:53:59;16.70;99.90
54429;DHT22;40337;52.978;6.310;2023-05-10T14:56:24;16.70;99.90
54429;DHT22;40337;52.978;6.310;2023-05-10T14:58:51;16.70;99.90
54429;DHT22;40337;52.978;6.310;2023-05-10T15:01:16;16.70;99.90
54429;DHT22;40337;52.978;6.310;2023-05-10T15:03:42;16.70;99.90
54429;DHT22;40337;52.978;6.310;2023-05-10T15:06:08;16.70;99.90
54429;DHT22;40337;52.978;6.310;2023-05-10T15:08:34;16.60;99.90
54429;DHT22;40337;52.978;6.310;2023-05-10T15:10:59;16.60;99.90
54429;DHT22;40337;52.978;6.310;2023-05-10T15:13:25;16.50;99.90
54429;DHT22;40337;52.978;6.310;2023-05-10T15:15:51;16.50;99.90
54429;DHT22;40337;52.978;6.310;2023-05-10T15:18:16;16.50;99.90
54429;DHT22;40337;52.978;6.310;2023-05-10T15:20:42;16.60;99.90
54429;DHT22;40337;52.978;6.310;2023-05-10T15:23:07;16.50;99.90
54429;DHT22;40337;52.978;6.310;2023-05-10T15:25:33;16.50;99.90
54429;DHT22;40337;52.978;6.310;2023-05-10T15:28:03;16.50;99.90
54429;DHT22;40337;52.978;6.310;2023-05-10T15:30:29;16.50;99.90
54429;DHT22;40337;52.978;6.310;2023-05-10T15:32:55;16.50;99.90
54429;DHT22;40337;52.978;6.310;2023-05-10T15:35:21;16.50;99.90
54429;DHT22;40337;52.978;6.310;2023-05-10T15:37:47;16.50;99.90
54429;DHT22;40337;52.978;6.310;2023-05-10T15:40:13;16.50;99.90
54429;DHT22;40337;52.978;6.310;2023-05-10T15:42:39;16.60;99.90
54429;DHT22;40337;52.978;6.310;2023-05-10T15:45:05;16.50;99.90
54429;DHT22;40337;52.978;6.310;2023-05-10T15:47:31;16.50;99.90